Terminal Aerodrome Forecast
Issued by NWS Sterling, VA

Current Version | Previous Version | Graphics & Text | Print | Product List | Glossary On
Versions: 1 2 3 4 5 6 7 8 9 10 11 12 13 14 15 16
292
FTUS41 KLWX 152322
TAFMRB
TAF
KMRB 152322Z 1600/1624 22008KT P6SM SCT090
     FM160100 23008KT P6SM BKN090
     FM160300 27009KT P6SM -SHRA BKN050
     FM160700 31010KT P6SM BKN120
     FM162100 33011G18KT P6SM FEW110
     FM162300 32008KT P6SM FEW250=

USA.gov is the U.S. government's official web portal to all federal, state and local government web resources and services.